Time;durP1;ratioP1;P1;durP2;ratioP2;P2;SDS_P1;SDS_P2;PMS_P1;PMS_P2;Temp;Humidity;BMP_temperature;BMP_pressure;BME280_temperature;BME280_humidity;BME280_pressure;Samples;Min_cycle;Max_cycle;Signal;HPM_P1;HPM_P2
2021/03/08 00:00:18;;;;;;;33.53;16.70;;;;;;;2.18;80.43;96831.88;4955091;28;20055;-70
2021/03/08 00:02:45;;;;;;;29.50;16.98;;;;;;;2.40;79.54;96831.94;4942189;28;20045;-72
2021/03/08 00:05:13;;;;;;;32.05;18.85;;;;;;;2.25;79.94;96833.09;4954337;28;20051;-69
2021/03/08 00:07:40;;;;;;;31.60;17.48;;;;;;;2.28;79.87;96837.19;4954619;28;20066;-69
2021/03/08 00:10:07;;;;;;;32.22;17.30;;;;;;;2.36;79.38;96837.44;4953762;28;20048;-69
2021/03/08 00:12:34;;;;;;;25.88;17.58;;;;;;;2.29;79.84;96841.41;4949046;28;20512;-70
2021/03/08 00:15:00;;;;;;;28.40;16.92;;;;;;;2.37;79.35;96833.91;4937593;28;20050;-69
2021/03/08 00:17:26;;;;;;;32.88;18.45;;;;;;;2.33;79.31;96842.78;4955187;28;20058;-69
2021/03/08 00:19:52;;;;;;;28.15;18.17;;;;;;;2.32;79.08;96831.69;4921614;28;20090;-69
2021/03/08 00:22:18;;;;;;;30.27;16.85;;;;;;;2.32;79.53;96841.16;4936992;28;20388;-69
2021/03/08 00:24:44;;;;;;;34.38;19.13;;;;;;;2.33;79.55;96832.50;4951141;28;20058;-69
2021/03/08 00:27:10;;;;;;;35.58;19.13;;;;;;;2.23;81.04;96824.69;4957042;28;20050;-69
2021/03/08 00:29:38;;;;;;;31.95;18.80;;;;;;;2.19;81.59;96831.78;4956713;28;20129;-69
2021/03/08 00:32:06;;;;;;;29.58;17.70;;;;;;;2.34;79.49;96844.44;4952596;28;20040;-70
2021/03/08 00:34:34;;;;;;;29.08;17.35;;;;;;;2.30;79.97;96835.31;4942208;28;20054;-69
2021/03/08 00:37:00;;;;;;;27.95;17.42;;;;;;;2.04;80.54;96833.72;4956714;28;20055;-69
2021/03/08 00:39:26;;;;;;;27.80;16.75;;;;;;;2.21;80.36;96829.09;4950764;28;20043;-69
2021/03/08 00:41:52;;;;;;;28.95;18.60;;;;;;;2.21;80.47;96842.75;4940533;28;20041;-69
2021/03/08 00:44:18;;;;;;;29.52;17.73;;;;;;;2.07;81.19;96832.66;4952318;28;20050;-69
2021/03/08 00:46:44;;;;;;;30.42;17.50;;;;;;;2.22;80.67;96846.13;4954569;28;20121;-69
2021/03/08 00:49:11;;;;;;;35.08;18.95;;;;;;;2.15;80.43;96824.41;4957429;28;20048;-69
2021/03/08 00:51:37;;;;;;;33.42;19.60;;;;;;;2.09;80.91;96830.81;4953503;28;20035;-69
2021/03/08 00:54:03;;;;;;;37.47;20.65;;;;;;;2.14;80.67;96812.50;4960835;28;20055;-70
2021/03/08 00:56:31;;;;;;;35.47;20.92;;;;;;;2.01;80.57;96818.53;4941722;28;20047;-69
2021/03/08 00:58:58;;;;;;;40.00;19.35;;;;;;;1.68;81.84;96795.31;4920345;28;20050;-69
2021/03/08 01:01:24;;;;;;;33.38;18.92;;;;;;;1.40;82.56;96802.41;4954786;28;20480;-69
2021/03/08 01:03:51;;;;;;;30.90;18.42;;;;;;;1.34;82.80;96810.53;4922677;28;20471;-69
2021/03/08 01:06:19;;;;;;;34.00;19.58;;;;;;;1.54;81.97;96806.56;4935343;28;20054;-70
2021/03/08 01:08:45;;;;;;;38.10;22.05;;;;;;;0.95;83.80;96786.72;4938391;28;20043;-69
2021/03/08 01:11:14;;;;;;;36.38;20.48;;;;;;;1.57;81.59;96822.56;4951937;28;20035;-69
2021/03/08 01:13:59;;;;;;;32.72;20.33;;;;;;;1.57;81.42;96814.03;4923986;28;20039;-69
2021/03/08 01:16:25;;;;;;;34.80;20.70;;;;;;;1.74;80.54;96813.66;4948174;28;20082;-69
2021/03/08 01:18:52;;;;;;;36.20;20.88;;;;;;;1.68;80.91;96819.22;4935120;28;20070;-70
2021/03/08 01:21:18;;;;;;;38.70;22.05;;;;;;;1.71;80.82;96820.75;4956278;28;20051;-69
2021/03/08 01:23:44;;;;;;;33.38;19.55;;;;;;;1.83;80.48;96809.59;4953404;28;20067;-69
2021/03/08 01:26:10;;;;;;;32.03;18.95;;;;;;;2.01;79.88;96802.31;4954264;28;20058;-70
2021/03/08 01:28:36;;;;;;;30.95;17.98;;;;;;;2.02;79.78;96799.63;4953581;28;20608;-70
2021/03/08 01:31:02;;;;;;;36.45;20.25;;;;;;;2.04;79.68;96802.09;4931341;28;20062;-69
2021/03/08 01:33:28;;;;;;;36.03;19.63;;;;;;;1.57;82.19;96794.34;4954567;28;20063;-69
2021/03/08 01:35:54;;;;;;;36.72;20.55;;;;;;;1.54;82.82;96783.47;4948088;28;20043;-69
2021/03/08 01:38:20;;;;;;;39.85;22.50;;;;;;;1.34;83.10;96783.13;4954004;28;20035;-70
2021/03/08 01:40:46;;;;;;;40.78;23.20;;;;;;;1.10;83.00;96775.44;4954176;28;20050;-69
2021/03/08 01:43:13;;;;;;;31.55;18.88;;;;;;;0.88;82.82;96781.22;4939209;28;20034;-69
2021/03/08 01:45:40;;;;;;;36.92;22.35;;;;;;;0.70;84.50;96782.47;4925324;28;21176;-69
2021/03/08 01:48:07;;;;;;;38.87;22.00;;;;;;;0.96;83.68;96793.50;4951930;28;20058;-69
2021/03/08 01:50:40;;;;;;;40.90;23.38;;;;;;;1.14;83.97;96794.81;4936654;28;20047;-69
2021/03/08 01:53:09;;;;;;;46.10;26.63;;;;;;;0.87;85.14;96799.25;4951446;28;20046;-69
2021/03/08 01:55:35;;;;;;;48.17;27.77;;;;;;;0.94;85.21;96798.72;4933796;28;20071;-69
2021/03/08 01:58:02;;;;;;;48.08;27.05;;;;;;;0.90;85.47;96799.06;4952811;28;20070;-69
2021/03/08 02:00:30;;;;;;;49.15;27.80;;;;;;;0.66;86.97;96793.88;4952683;28;20047;-70
2021/03/08 02:02:58;;;;;;;45.90;26.40;;;;;;;0.39;87.90;96781.97;4951688;28;20047;-69
2021/03/08 02:05:28;;;;;;;58.42;29.65;;;;;;;0.20;86.67;96784.94;4950539;28;20074;-69
2021/03/08 02:07:55;;;;;;;66.50;30.20;;;;;;;-0.05;87.24;96776.31;4934865;28;20135;-69
2021/03/08 02:10:22;;;;;;;56.75;28.08;;;;;;;0.07;88.80;96764.47;4956279;28;20053;-69
2021/03/08 02:12:48;;;;;;;61.50;31.45;;;;;;;0.22;88.28;96769.50;4954749;28;20049;-69
2021/03/08 02:15:39;;;;;;;48.90;27.63;;;;;;;0.44;87.63;96771.44;4954457;28;20121;-69
2021/03/08 02:18:13;;;;;;;55.90;30.50;;;;;;;0.19;88.02;96771.34;4953564;28;20400;-69
2021/03/08 02:21:25;;;;;;;55.13;28.75;;;;;;;0.19;88.55;96778.16;4952472;28;20459;-69
2021/03/08 02:24:08;;;;;;;53.20;28.38;;;;;;;0.11;87.20;96776.13;4954038;28;20051;-69
2021/03/08 02:26:52;;;;;;;54.28;26.40;;;;;;;-0.34;86.19;96774.81;4954617;28;20054;-69
2021/03/08 02:29:52;;;;;;;37.47;20.85;;;;;;;-0.52;86.13;96774.25;4947048;28;20082;-68
2021/03/08 02:32:21;;;;;;;54.53;27.52;;;;;;;-0.60;87.86;96779.84;4950999;28;20045;-69
2021/03/08 02:35:11;;;;;;;43.78;23.90;;;;;;;-0.66;86.36;96778.53;4954863;28;20117;-69
2021/03/08 02:37:52;;;;;;;61.42;26.88;;;;;;;-0.90;86.65;96774.94;4953669;28;20046;-69
2021/03/08 02:40:23;;;;;;;52.90;28.90;;;;;;;-0.73;87.93;96768.75;4954131;28;20058;-69
2021/03/08 02:42:55;;;;;;;44.55;25.50;;;;;;;-0.83;87.66;96782.13;4956849;28;20487;-70
2021/03/08 02:45:27;;;;;;;36.67;21.52;;;;;;;-0.89;86.34;96784.22;4953561;28;20060;-69
2021/03/08 02:48:00;;;;;;;77.45;34.70;;;;;;;-1.26;88.43;96782.19;4961120;28;20061;-69
2021/03/08 02:50:34;;;;;;;53.35;27.98;;;;;;;-0.91;87.53;96780.94;4962137;28;20114;-69
2021/03/08 02:53:06;;;;;;;48.92;26.38;;;;;;;-0.95;87.45;96787.16;4955955;28;20053;-69
2021/03/08 02:55:55;;;;;;;49.88;26.35;;;;;;;-0.80;85.96;96773.44;4955272;28;20051;-70
2021/03/08 02:58:24;;;;;;;70.50;33.42;;;;;;;-0.86;86.12;96774.63;4957143;28;20051;-70
2021/03/08 03:01:08;;;;;;;49.08;27.35;;;;;;;-0.74;86.09;96772.22;4952897;28;20079;-70
2021/03/08 03:03:39;;;;;;;56.83;27.42;;;;;;;-0.84;86.04;96775.38;4957469;28;20133;-70
2021/03/08 03:06:07;;;;;;;44.33;23.77;;;;;;;-0.81;86.13;96782.00;4963021;28;20065;-69
2021/03/08 03:08:35;;;;;;;39.95;23.08;;;;;;;-0.69;85.13;96786.38;4955456;28;20067;-69
2021/03/08 03:11:01;;;;;;;38.78;22.73;;;;;;;-0.45;83.98;96783.19;4944737;28;20375;-69
2021/03/08 03:13:28;;;;;;;38.53;22.63;;;;;;;-0.41;82.44;96776.94;4961935;28;20047;-69
2021/03/08 03:15:55;;;;;;;41.70;23.57;;;;;;;-0.67;84.28;96797.31;4960622;28;20057;-69
2021/03/08 03:18:26;;;;;;;39.83;23.75;;;;;;;-0.33;82.50;96784.16;4958505;28;20047;-69
2021/03/08 03:20:53;;;;;;;43.25;24.45;;;;;;;-0.52;83.64;96781.94;4958657;28;20054;-70
2021/03/08 03:23:22;;;;;;;43.00;25.52;;;;;;;-0.76;84.12;96780.00;4959884;28;20122;-69
2021/03/08 03:25:49;;;;;;;42.78;24.15;;;;;;;-0.88;84.59;96780.75;4957073;28;20042;-69
2021/03/08 03:28:17;;;;;;;38.30;22.65;;;;;;;-0.88;84.03;96780.75;4960609;28;20055;-69
2021/03/08 03:30:44;;;;;;;44.25;24.58;;;;;;;-1.14;84.92;96783.19;4964437;28;20645;-70
2021/03/08 03:33:13;;;;;;;44.50;26.13;;;;;;;-1.41;86.24;96783.13;4957164;28;20040;-69
2021/03/08 03:35:39;;;;;;;46.83;26.30;;;;;;;-1.35;84.46;96780.19;4947638;28;20044;-69
2021/03/08 03:38:06;;;;;;;51.08;28.02;;;;;;;-1.69;85.88;96789.84;4957907;28;20126;-69
2021/03/08 03:40:33;;;;;;;54.17;28.13;;;;;;;-1.60;85.82;96792.78;4957668;28;20048;-69
2021/03/08 03:43:00;;;;;;;42.75;25.10;;;;;;;-1.73;85.72;96798.59;4961568;28;20042;-69
2021/03/08 03:45:26;;;;;;;46.88;26.15;;;;;;;-1.73;85.63;96788.38;4942745;28;20065;-69
2021/03/08 03:47:52;;;;;;;50.17;26.02;;;;;;;-1.73;85.73;96798.59;4955586;28;20043;-69
2021/03/08 03:50:21;;;;;;;50.65;29.05;;;;;;;-1.65;85.01;96809.19;4963328;28;20085;-69
2021/03/08 03:52:48;;;;;;;57.63;29.17;;;;;;;-1.64;84.79;96794.69;4940606;28;20043;-69
2021/03/08 03:55:22;;;;;;;51.28;29.40;;;;;;;-1.83;85.60;96804.31;4958715;28;20507;-70
2021/03/08 03:57:48;;;;;;;42.08;24.98;;;;;;;-1.79;84.70;96804.06;4960606;28;20047;-69
2021/03/08 04:00:19;;;;;;;48.20;26.17;;;;;;;-1.71;85.24;96795.97;4959908;28;20383;-70
2021/03/08 04:02:56;;;;;;;61.90;31.83;;;;;;;-2.17;86.79;96793.50;4955036;28;20048;-70
2021/03/08 04:05:24;;;;;;;61.38;31.52;;;;;;;-2.09;86.72;96776.03;4955245;28;20106;-70
2021/03/08 04:07:52;;;;;;;59.53;29.75;;;;;;;-2.23;86.97;96804.03;4963250;28;20042;-70
2021/03/08 04:10:18;;;;;;;;;;;;;;;-2.06;85.71;96807.28;4941484;28;20481;-70
2021/03/08 04:12:52;;;;;;;53.10;29.80;;;;;;;-2.22;86.84;96805.69;4951357;28;20371;-70
2021/03/08 04:15:21;;;;;;;48.25;27.70;;;;;;;-2.26;85.66;96795.66;4954458;28;20038;-70
2021/03/08 04:17:48;;;;;;;52.17;28.73;;;;;;;-2.11;86.58;96805.91;4955862;28;20051;-70
2021/03/08 04:20:19;;;;;;;44.08;25.67;;;;;;;-1.61;85.28;96802.16;4955333;28;20042;-70
2021/03/08 04:22:49;;;;;;;44.42;25.67;;;;;;;-1.65;84.55;96801.53;4957638;28;20047;-70
2021/03/08 04:25:17;;;;;;;40.30;24.23;;;;;;;-1.48;84.12;96813.31;4952855;28;20055;-70
2021/03/08 04:27:44;;;;;;;;;;;;;;;-1.16;79.31;96813.13;4955436;28;20059;-70
2021/03/08 04:30:11;;;;;;;26.30;16.20;;;;;;;-1.04;77.55;96816.66;4951897;28;19929;-70
2021/03/08 04:32:39;;;;;;;24.42;14.45;;;;;;;-0.87;74.02;96821.56;4939843;28;20043;-70
2021/03/08 04:35:07;;;;;;;20.10;12.57;;;;;;;-0.74;70.81;96819.09;4937949;28;20723;-70
2021/03/08 04:37:35;;;;;;;23.48;13.73;;;;;;;-0.65;70.82;96821.06;4957168;28;20039;-70
2021/03/08 04:40:02;;;;;;;23.20;14.55;;;;;;;-0.91;71.65;96809.06;4954453;28;20047;-70
2021/03/08 04:42:29;;;;;;;;;;;;;;;-1.38;78.63;96833.19;4958709;28;20130;-70
2021/03/08 04:44:56;;;;;;;37.58;20.30;;;;;;;-1.75;81.90;96825.94;4954163;28;20390;-70
2021/03/08 04:47:24;;;;;;;38.80;22.77;;;;;;;-1.90;82.36;96837.84;4942693;28;20051;-69
2021/03/08 04:49:51;;;;;;;38.75;22.58;;;;;;;-1.84;82.60;96836.69;4942246;28;20050;-71
2021/03/08 04:52:21;;;;;;;39.67;23.77;;;;;;;-1.93;83.14;96837.19;4956418;28;20038;-70
2021/03/08 04:54:47;;;;;;;42.50;24.42;;;;;;;-1.82;81.83;96834.03;4938300;28;20051;-70
2021/03/08 04:57:18;;;;;;;48.05;23.77;;;;;;;-2.18;82.67;96827.56;4956067;28;20047;-70
2021/03/08 04:59:47;;;;;;;43.45;26.05;;;;;;;-2.31;84.65;96827.41;4936891;28;20047;-71
2021/03/08 05:02:23;;;;;;;39.60;23.50;;;;;;;-1.86;83.26;96836.78;4958897;28;20061;-69
2021/03/08 05:04:52;;;;;;;36.28;21.45;;;;;;;-1.85;82.32;96843.50;4927253;28;20047;-70
2021/03/08 05:07:21;;;;;;;39.33;22.90;;;;;;;-1.85;82.52;96838.41;4939548;28;20054;-69
2021/03/08 05:09:49;;;;;;;43.05;24.63;;;;;;;-2.07;83.38;96840.53;4941001;28;20039;-69
2021/03/08 05:12:16;;;;;;;46.40;26.75;;;;;;;-2.25;84.68;96837.28;4956064;28;20046;-70
2021/03/08 05:14:44;;;;;;;45.42;25.35;;;;;;;-2.10;84.64;96836.41;4948804;28;20083;-70
2021/03/08 05:17:14;;;;;;;43.83;24.40;;;;;;;-2.05;84.21;96837.00;4934958;28;20070;-71
2021/03/08 05:19:43;;;;;;;44.97;25.80;;;;;;;-1.90;83.21;96837.03;4936070;28;20058;-70
2021/03/08 05:22:11;;;;;;;36.85;22.00;;;;;;;-1.95;82.56;96827.06;4953790;28;20035;-69
2021/03/08 05:24:37;;;;;;;;;;;;;;;-1.96;82.59;96835.66;4953848;28;20043;-72
2021/03/08 05:27:08;;;;;;;37.53;21.45;;;;;;;-2.23;82.62;96834.66;4958335;28;19970;-70
2021/03/08 05:29:40;;;;;;;35.97;22.27;;;;;;;-2.37;82.11;96833.69;4938074;28;20051;-70
2021/03/08 05:32:09;;;;;;;32.10;19.38;;;;;;;-2.25;81.59;96855.94;4955297;28;20043;-69
2021/03/08 05:34:41;;;;;;;32.05;17.52;;;;;;;-1.92;78.84;96849.06;4957166;28;20043;-70
2021/03/08 05:37:08;;;;;;;28.48;17.50;;;;;;;-1.97;79.13;96849.31;4955084;28;20055;-70
2021/03/08 05:39:35;;;;;;;27.40;17.05;;;;;;;-1.99;78.70;96842.63;4957536;28;20047;-71
2021/03/08 05:42:13;;;;;;;28.80;17.33;;;;;;;-1.89;78.14;96854.78;4942128;28;20739;-71
2021/03/08 05:44:47;;;;;;;29.48;17.58;;;;;;;-1.92;78.58;96852.44;4951703;28;20053;-71
2021/03/08 05:47:45;;;;;;;33.28;18.40;;;;;;;-2.00;79.12;96853.78;4956760;28;20053;-71
2021/03/08 05:50:30;;;;;;;28.23;18.20;;;;;;;-1.97;79.34;96854.44;4916969;28;20487;-71
2021/03/08 05:53:26;;;;;;;29.52;18.75;;;;;;;-2.09;79.69;96855.09;4951063;28;20292;-71
2021/03/08 05:56:16;;;;;;;31.45;18.42;;;;;;;-2.30;80.00;96846.91;4945400;28;20069;-70
2021/03/08 05:59:01;;;;;;;37.92;21.58;;;;;;;-2.23;80.11;96875.44;4937661;28;20134;-68
2021/03/08 06:02:02;;;;;;;29.40;18.08;;;;;;;-2.20;80.21;96878.66;4947198;28;20455;-69
2021/03/08 06:05:05;;;;;;;30.52;18.02;;;;;;;-2.26;79.47;96873.91;4951827;28;20055;-68
2021/03/08 06:08:08;;;;;;;30.80;19.55;;;;;;;-2.36;80.44;96878.66;4950202;28;20525;-69
2021/03/08 06:10:40;;;;;;;23.83;16.30;;;;;;;-2.21;78.26;96873.63;4953472;28;20073;-70
2021/03/08 06:13:10;;;;;;;24.75;14.88;;;;;;;-2.03;77.52;96887.09;4932885;28;20046;-71
2021/03/08 06:15:37;;;;;;;28.30;16.90;;;;;;;-1.96;77.39;96894.31;4952320;28;20043;-70
2021/03/08 06:18:07;;;;;;;45.27;25.27;;;;;;;-2.26;78.90;96902.78;4954037;28;20054;-76
2021/03/08 06:20:34;;;;;;;28.38;17.48;;;;;;;-1.90;77.23;96898.28;4935400;28;20048;-74
2021/03/08 06:23:02;;;;;;;29.95;16.88;;;;;;;-1.90;76.88;96896.53;4953874;28;20146;-73
2021/03/08 06:25:33;;;;;;;27.38;16.95;;;;;;;-1.87;76.70;96896.34;4953797;28;20499;-72
2021/03/08 06:28:00;;;;;;;28.23;16.48;;;;;;;-1.79;77.48;96897.66;4951201;28;20066;-72
2021/03/08 06:30:27;;;;;;;27.13;16.58;;;;;;;-1.69;76.63;96911.56;4953837;28;20053;-77
2021/03/08 06:32:54;;;;;;;30.23;16.03;;;;;;;-1.61;76.40;96909.38;4937123;28;20047;-72
2021/03/08 06:35:20;;;;;;;25.35;16.50;;;;;;;-1.29;75.96;96919.47;4951351;28;20539;-74
2021/03/08 06:37:48;;;;;;;23.13;15.35;;;;;;;-0.99;73.95;96921.97;4954063;28;20558;-74
2021/03/08 06:40:16;;;;;;;18.58;13.95;;;;;;;-0.95;73.93;96930.25;4938789;28;20051;-71
2021/03/08 06:42:43;;;;;;;26.13;15.85;;;;;;;-0.84;73.34;96930.47;4949388;28;20053;-70
2021/03/08 06:45:09;;;;;;;18.55;12.93;;;;;;;-0.93;72.45;96925.88;4949819;28;20051;-69
2021/03/08 06:47:35;;;;;;;20.33;14.38;;;;;;;-0.82;73.63;96934.56;4935733;28;20050;-72
2021/03/08 06:50:02;;;;;;;22.92;14.23;;;;;;;-0.78;71.23;96930.09;4932281;28;20129;-71
2021/03/08 06:52:42;;;;;;;23.50;14.67;;;;;;;-0.89;73.61;96943.53;4945315;28;20055;-69
2021/03/08 06:55:11;;;;;;;21.55;14.07;;;;;;;-0.99;72.24;96941.59;4958420;28;20043;-68
2021/03/08 06:57:38;;;;;;;18.83;12.98;;;;;;;-0.73;71.56;96937.50;4953255;28;20044;-68
2021/03/08 07:00:09;;;;;;;19.63;13.83;;;;;;;-0.73;70.62;96943.41;4950231;28;20146;-69
2021/03/08 07:02:46;;;;;;;22.10;14.10;;;;;;;-0.85;71.25;96949.25;4953781;28;20065;-69
2021/03/08 07:05:15;;;;;;;19.40;13.15;;;;;;;-0.51;69.97;96942.97;4935160;28;20053;-71
2021/03/08 07:07:59;;;;;;;21.17;12.88;;;;;;;-0.23;68.79;96946.38;4933027;28;20146;-74
2021/03/08 07:10:32;;;;;;;20.63;12.98;;;;;;;0.07;67.85;96959.00;4952809;28;20531;-70
2021/03/08 07:12:58;;;;;;;21.58;14.75;;;;;;;0.33;68.05;96949.66;4953942;28;20049;-71
2021/03/08 07:15:25;;;;;;;24.13;12.93;;;;;;;0.63;66.58;96947.78;4953475;28;20051;-69
2021/03/08 07:17:51;;;;;;;19.10;12.32;;;;;;;0.74;65.86;96955.56;4951533;28;20058;-72
2021/03/08 07:20:18;;;;;;;19.95;13.48;;;;;;;0.80;65.06;96952.63;4941005;28;20051;-71
2021/03/08 07:22:50;;;;;;;17.15;12.52;;;;;;;0.99;67.18;96945.34;4940533;28;20039;-69
2021/03/08 07:25:26;;;;;;;18.20;12.32;;;;;;;0.61;65.14;96950.44;4931696;28;20158;-68
2021/03/08 07:27:54;;;;;;;16.30;11.88;;;;;;;0.90;64.27;96940.03;4955153;28;20119;-69
2021/03/08 07:30:27;;;;;;;17.45;11.35;;;;;;;0.82;63.98;96943.09;4950514;28;20077;-69
2021/03/08 07:33:05;;;;;;;17.73;11.85;;;;;;;0.95;65.60;96926.00;4934943;28;20044;-68
2021/03/08 07:35:39;;;;;;;18.23;11.52;;;;;;;1.63;61.12;96931.66;4962913;28;20453;-69
2021/03/08 07:38:12;;;;;;;68.80;29.92;;;;;;;2.27;61.89;96946.81;4934205;28;20055;-69
2021/03/08 07:40:41;;;;;;;17.23;11.93;;;;;;;2.51;61.39;96946.78;4953419;28;20078;-69
2021/03/08 07:43:22;;;;;;;17.05;11.63;;;;;;;2.86;59.77;96940.84;4940422;28;20038;-70
2021/03/08 07:45:48;;;;;;;18.33;11.23;;;;;;;3.18;61.59;96945.31;4950784;28;20062;-69
2021/03/08 07:48:17;;;;;;;16.25;11.57;;;;;;;2.75;59.84;96951.06;4959113;28;20107;-69
2021/03/08 07:50:47;;;;;;;17.35;12.15;;;;;;;2.66;61.65;96947.44;4955498;28;20125;-69
2021/03/08 07:53:27;;;;;;;15.27;11.35;;;;;;;2.86;60.72;96945.97;4957959;28;20055;-69
2021/03/08 07:55:58;;;;;;;16.00;11.35;;;;;;;3.02;60.87;96936.16;4941005;28;20107;-67
2021/03/08 07:58:29;;;;;;;15.75;11.50;;;;;;;3.15;60.61;96938.63;4950862;28;20495;-67
2021/03/08 08:00:56;;;;;;;19.00;12.82;;;;;;;3.46;61.16;96941.47;4937853;28;20062;-67
2021/03/08 08:03:24;;;;;;;17.38;12.30;;;;;;;3.75;59.27;96946.13;4940172;28;20138;-69
2021/03/08 08:05:54;;;;;;;22.08;14.43;;;;;;;4.49;55.70;96946.28;4936304;28;20055;-68
2021/03/08 08:08:22;;;;;;;20.45;14.65;;;;;;;3.57;59.62;96943.22;4956100;28;20047;-69
2021/03/08 08:10:52;;;;;;;19.85;13.98;;;;;;;3.52;58.89;96951.28;4935740;28;20129;-70
2021/03/08 08:13:26;;;;;;;16.20;11.55;;;;;;;4.57;57.89;96949.06;4955004;28;20050;-69
2021/03/08 08:15:53;;;;;;;14.98;11.07;;;;;;;4.75;57.52;96961.38;4940178;28;20043;-69
2021/03/08 08:18:21;;;;;;;19.30;13.10;;;;;;;5.35;56.89;96948.69;4936466;28;20066;-70
2021/03/08 08:20:51;;;;;;;15.00;11.57;;;;;;;5.46;54.07;96952.03;4955240;28;20047;-71
2021/03/08 08:23:23;;;;;;;17.40;11.27;;;;;;;5.53;56.19;96951.50;4942907;28;20406;-71
2021/03/08 08:25:50;;;;;;;14.15;10.20;;;;;;;4.97;55.40;96955.28;4953881;28;20051;-69
2021/03/08 08:28:20;;;;;;;21.23;12.80;;;;;;;5.22;56.21;96948.91;4955976;28;20049;-70
2021/03/08 08:30:55;;;;;;;15.88;10.07;;;;;;;7.03;51.69;96961.63;4940150;28;20130;-70
2021/03/08 08:33:28;;;;;;;15.90;11.43;;;;;;;4.94;57.25;96956.34;4955405;28;20507;-70
2021/03/08 08:36:20;;;;;;;14.20;10.55;;;;;;;5.45;55.43;96958.13;4959102;28;20046;-72
2021/03/08 08:38:53;;;;;;;14.73;11.30;;;;;;;4.46;57.08;96957.63;4959018;28;20114;-72
2021/03/08 08:41:28;;;;;;;14.00;10.68;;;;;;;5.51;54.63;96955.03;4936580;28;20063;-71
2021/03/08 08:44:07;;;;;;;14.18;9.88;;;;;;;6.08;52.79;96951.97;4936753;28;20039;-70
2021/03/08 08:46:35;;;;;;;13.13;11.07;;;;;;;5.46;57.42;96966.66;4948370;28;20066;-71
2021/03/08 08:49:08;;;;;;;14.88;10.63;;;;;;;6.30;52.69;96962.03;4940104;28;20510;-70
2021/03/08 08:51:49;;;;;;;14.48;11.05;;;;;;;5.33;55.39;96964.31;4953444;28;20058;-71
2021/03/08 08:54:38;;;;;;;14.07;10.75;;;;;;;5.56;54.61;96966.72;4948904;28;20039;-71
2021/03/08 08:57:10;;;;;;;17.67;10.55;;;;;;;7.18;51.56;96954.25;4951365;28;20050;-70
2021/03/08 08:59:38;;;;;;;11.30;9.75;;;;;;;7.86;48.01;96955.75;4954971;28;20102;-72
2021/03/08 09:02:15;;;;;;;11.60;9.48;;;;;;;7.97;48.72;96957.34;4934944;28;20142;-72
2021/03/08 09:04:42;;;;;;;16.52;9.77;;;;;;;8.84;48.12;96961.09;4955588;28;20456;-72
2021/03/08 09:07:19;;;;;;;11.02;8.48;;;;;;;9.30;46.88;96967.75;4955727;28;20062;-71
2021/03/08 09:09:48;;;;;;;12.07;9.95;;;;;;;8.42;45.22;96970.31;4950804;28;20510;-72
2021/03/08 09:12:43;;;;;;;18.10;10.23;;;;;;;10.03;47.05;96978.66;4950550;28;20047;-71
2021/03/08 09:15:17;;;;;;;12.20;10.25;;;;;;;10.10;43.21;96958.88;4937036;28;20038;-71
2021/03/08 09:17:48;;;;;;;14.02;12.52;;;;;;;12.63;38.63;96977.66;4948881;28;20055;-72
2021/03/08 09:20:15;;;;;;;11.48;8.18;;;;;;;15.41;33.60;96972.69;4949085;28;20047;-71
2021/03/08 09:22:44;;;;;;;10.65;8.55;;;;;;;15.05;31.39;96981.47;4950274;28;20046;-71
2021/03/08 09:25:10;;;;;;;10.88;8.65;;;;;;;17.68;29.82;96972.22;4953288;28;20094;-72
2021/03/08 09:27:45;;;;;;;10.10;9.10;;;;;;;17.92;30.37;96975.22;4953071;28;20035;-71
2021/03/08 09:30:23;;;;;;;11.32;8.55;;;;;;;15.91;31.95;96970.75;4947226;28;20082;-71
2021/03/08 09:33:07;;;;;;;10.57;8.60;;;;;;;15.85;31.03;96961.03;4935915;28;20047;-71
2021/03/08 09:35:37;;;;;;;10.32;8.73;;;;;;;19.19;27.15;96967.44;4937333;28;20046;-71
2021/03/08 09:38:12;;;;;;;10.27;8.23;;;;;;;18.91;27.76;96966.03;4934340;28;20440;-71
2021/03/08 09:40:41;;;;;;;9.02;8.10;;;;;;;18.56;27.44;96962.19;4954905;28;20071;-71
2021/03/08 09:43:38;;;;;;;8.80;7.80;;;;;;;20.80;26.50;96956.69;4952942;28;20391;-71
2021/03/08 09:46:18;;;;;;;9.52;7.97;;;;;;;20.04;25.45;96958.09;4911572;28;20050;-71
2021/03/08 09:48:54;;;;;;;8.20;7.43;;;;;;;17.25;26.15;96967.44;4950257;28;20039;-71
2021/03/08 09:51:22;;;;;;;8.00;7.20;;;;;;;20.06;25.77;96954.19;4936810;28;20088;-71
2021/03/08 09:53:58;;;;;;;8.45;7.32;;;;;;;21.41;22.94;96957.34;4937162;28;20036;-72
2021/03/08 09:56:26;;;;;;;8.32;7.43;;;;;;;20.46;23.92;96960.81;4955840;28;20058;-72
2021/03/08 09:59:04;;;;;;;7.50;6.65;;;;;;;21.81;22.38;96961.94;4947006;28;20062;-72
2021/03/08 10:01:30;;;;;;;;;;;;;;;20.01;23.19;96959.34;4937970;28;20102;-72
2021/03/08 10:03:57;;;;;;;7.38;6.63;;;;;;;21.04;22.73;96962.84;4955846;28;20020;-71
2021/03/08 10:06:43;;;;;;;7.10;6.38;;;;;;;22.55;20.29;96954.13;4947440;28;20043;-72
2021/03/08 10:09:18;;;;;;;8.35;6.90;;;;;;;23.50;21.24;96959.66;4951218;28;20492;-72
2021/03/08 10:11:44;;;;;;;7.88;7.18;;;;;;;25.69;19.06;96958.69;4954937;28;20061;-71
2021/03/08 10:14:30;;;;;;;7.97;6.80;;;;;;;24.40;20.75;96948.81;4952946;28;20042;-72
2021/03/08 10:17:17;;;;;;;6.95;6.20;;;;;;;23.02;20.72;96966.38;4951078;28;20078;-72
2021/03/08 10:19:56;;;;;;;7.30;6.55;;;;;;;24.62;20.50;96956.81;4952655;28;20055;-72
2021/03/08 10:22:36;;;;;;;7.82;6.32;;;;;;;22.30;20.57;96961.63;4934588;28;20439;-72
2021/03/08 10:25:17;;;;;;;7.55;6.00;;;;;;;24.73;20.22;96968.34;4951425;28;20051;-70
2021/03/08 10:27:43;;;;;;;7.50;6.70;;;;;;;23.27;22.82;96967.81;4935005;28;20062;-70
2021/03/08 10:30:13;;;;;;;7.55;6.85;;;;;;;21.88;21.92;96973.22;4934284;28;20418;-69
2021/03/08 10:32:41;;;;;;;7.00;6.30;;;;;;;24.79;20.86;96983.31;4951705;28;20039;-71
2021/03/08 10:35:10;;;;;;;7.38;6.22;;;;;;;25.82;20.07;96984.09;4933389;28;20047;-71
2021/03/08 10:37:39;;;;;;;6.47;5.80;;;;;;;25.92;17.88;96974.31;4957351;28;20062;-72
2021/03/08 10:40:07;;;;;;;8.35;6.30;;;;;;;22.58;20.37;96982.03;4935611;28;20055;-72
2021/03/08 10:42:36;;;;;;;8.25;6.55;;;;;;;23.01;19.57;96969.25;4949875;28;20452;-72
2021/03/08 10:45:04;;;;;;;7.43;5.72;;;;;;;26.31;17.33;96975.78;4937376;28;20053;-70
2021/03/08 10:47:30;;;;;;;7.18;6.45;;;;;;;25.10;19.86;96976.38;4947988;28;20046;-71
2021/03/08 10:49:57;;;;;;;7.13;6.20;;;;;;;27.35;17.18;96968.50;4951442;28;20035;-72
2021/03/08 10:52:23;;;;;;;8.70;6.78;;;;;;;25.51;17.59;96974.06;4954094;28;20854;-71
2021/03/08 10:54:50;;;;;;;7.40;6.68;;;;;;;26.68;16.56;96970.31;4952607;28;20062;-71
2021/03/08 10:57:16;;;;;;;7.85;6.63;;;;;;;26.70;17.59;96962.84;4952119;28;20051;-72
2021/03/08 10:59:47;;;;;;;8.57;6.60;;;;;;;26.22;18.00;96956.03;4933837;28;20301;-72
2021/03/08 11:02:15;;;;;;;7.88;6.55;;;;;;;26.06;18.52;96958.66;4937512;28;20047;-72
2021/03/08 11:04:45;;;;;;;7.68;6.80;;;;;;;27.35;17.78;96960.50;4933028;28;20040;-71
2021/03/08 11:07:33;;;;;;;7.35;6.65;;;;;;;23.41;18.51;96962.97;4952544;28;20078;-71
2021/03/08 11:09:59;;;;;;;8.23;6.43;;;;;;;26.87;17.84;96949.25;4939759;28;20039;-71
2021/03/08 11:12:25;;;;;;;8.77;6.28;;;;;;;25.04;16.96;96953.47;4950655;28;20102;-71
2021/03/08 11:14:53;;;;;;;7.22;6.53;;;;;;;27.58;14.74;96956.44;4934375;28;20066;-71
2021/03/08 11:17:49;;;;;;;6.63;6.03;;;;;;;25.63;17.28;96949.06;4956422;28;20073;-71
2021/03/08 11:20:22;;;;;;;8.73;6.05;;;;;;;23.13;17.85;96957.50;4929411;28;20066;-70
2021/03/08 11:22:49;;;;;;;11.50;6.35;;;;;;;27.82;16.08;96951.28;4935560;28;20058;-70
2021/03/08 11:25:34;;;;;;;5.95;5.45;;;;;;;25.21;16.37;96948.03;4959314;28;20130;-70
2021/03/08 11:28:04;;;;;;;9.48;8.32;;;;;;;27.21;17.38;96940.69;4953417;28;20901;-71
2021/03/08 11:30:31;;;;;;;8.23;6.38;;;;;;;25.97;16.84;96946.84;4951128;28;20496;-70
2021/03/08 11:32:59;;;;;;;16.10;7.03;;;;;;;28.01;15.30;96940.03;4936661;28;20039;-70
2021/03/08 11:35:27;;;;;;;7.75;6.07;;;;;;;27.29;16.02;96953.53;4950315;28;20043;-72
2021/03/08 11:38:06;;;;;;;7.30;5.78;;;;;;;27.10;16.29;96945.25;4938496;28;20047;-72
2021/03/08 11:40:33;;;;;;;8.55;6.00;;;;;;;26.52;16.21;96949.97;4951469;28;20061;-71
2021/03/08 11:43:01;;;;;;;6.55;5.80;;;;;;;27.36;16.04;96948.72;4955362;28;20054;-70